Wetterdaten: Woche 18.01.16 - 24.01.16 (KW3)
Datum Zeit Temp. I. Temp. A. Feuchte I. Feuchte A. Luftdruck Regen Wind Richtung Sonnenschein UV Solar Taupunkt Windchill Windben
18.01.2016 00:00 22,8 C -5,5 C 46 % 94 % 1025,3 hPa 0,0 l/m 0,0 km/h (0 Bft) N 0,00 h 0,0 UV-I 0 W/m -6,4 C -5,5 C 0,0 km/h (0 Bft)
18.01.2016 01:00 22,6 C -5,4 C 46 % 94 % 1025,1 hPa 0,0 l/m 0,0 km/h (0 Bft) N 0,00 h 0,0 UV-I 0 W/m -6,2 C -5,4 C 0,0 km/h (0 Bft)
18.01.2016 02:00 22,4 C -5,3 C 46 % 94 % 1024,9 hPa 0,0 l/m 0,0 km/h (0 Bft) N 0,00 h 0,0 UV-I 0 W/m -6,1 C -5,3 C 0,0 km/h (0 Bft)
18.01.2016 03:00 22,4 C -5,3 C 47 % 94 % 1024,6 hPa 0,0 l/m 0,0 km/h (0 Bft) N 0,00 h 0,0 UV-I 0 W/m -6,2 C -5,3 C 0,0 km/h (0 Bft)
18.01.2016 04:00 22,6 C -5,4 C 47 % 94 % 1024,5 hPa 0,0 l/m 0,0 km/h (0 Bft) N 0,00 h 0,0 UV-I 0 W/m -6,2 C -5,4 C 0,0 km/h (0 Bft)
18.01.2016 05:00 22,5 C -5,4 C 48 % 94 % 1024,3 hPa 0,2 l/m 0,0 km/h (0 Bft) N 0,00 h 0,0 UV-I 0 W/m -6,2 C -5,4 C 0,0 km/h (0 Bft)
18.01.2016 06:00 22,6 C -5,8 C 48 % 94 % 1024,2 hPa 0,0 l/m 0,0 km/h (0 Bft) N 0,00 h 0,0 UV-I 0 W/m -6,7 C -5,8 C 0,0 km/h (0 Bft)
18.01.2016 07:00 22,5 C -6,3 C 48 % 93 % 1024,2 hPa 0,0 l/m 0,0 km/h (0 Bft) N 0,00 h 0,0 UV-I 0 W/m -7,3 C -6,3 C 0,0 km/h (0 Bft)
18.01.2016 08:00 22,7 C -6,5 C 48 % 94 % 1024,3 hPa 0,0 l/m 0,0 km/h (0 Bft) N 0,00 h 0,0 UV-I 12 W/m -7,4 C -6,5 C 0,0 km/h (0 Bft)
18.01.2016 09:00 22,8 C -6,0 C 46 % 94 % 1024,0 hPa 0,0 l/m 0,0 km/h (0 Bft) N 0,03 h 0,0 UV-I 51 W/m -6,7 C -6,0 C 0,0 km/h (0 Bft)
18.01.2016 10:00 22,9 C -4,0 C 46 % 90 % 1023,6 hPa 0,0 l/m 0,0 km/h (0 Bft) N 1,00 h 0,6 UV-I 320 W/m -5,3 C -4,0 C 0,0 km/h (0 Bft)
18.01.2016 11:00 22,8 C -3,5 C 44 % 86 % 1022,9 hPa 0,0 l/m 0,0 km/h (0 Bft) N 1,00 h 0,9 UV-I 310 W/m -5,4 C -3,5 C 0,0 km/h (0 Bft)
18.01.2016 12:00 22,8 C -2,8 C 44 % 82 % 1022,0 hPa 0,0 l/m 0,0 km/h (0 Bft) N 1,00 h 1,1 UV-I 325 W/m -5,5 C -2,8 C 0,2 km/h (0 Bft)
18.01.2016 13:00 22,9 C -2,7 C 45 % 78 % 1021,2 hPa 0,0 l/m 0,1 km/h (0 Bft) O-NO 0,58 h 0,9 UV-I 208 W/m -5,9 C -2,7 C 0,8 km/h (0 Bft)
18.01.2016 14:00 22,9 C -3,4 C 45 % 79 % 1020,7 hPa 0,0 l/m 0,0 km/h (0 Bft) N 0,35 h 0,6 UV-I 111 W/m -6,6 C -3,4 C 0,2 km/h (0 Bft)
18.01.2016 15:00 22,9 C -3,3 C 45 % 78 % 1020,3 hPa 0,0 l/m 0,0 km/h (0 Bft) N 0,08 h 0,5 UV-I 77 W/m -6,5 C -3,3 C 0,5 km/h (0 Bft)
18.01.2016 16:00 23,1 C -4,5 C 47 % 82 % 1020,0 hPa 0,0 l/m 0,0 km/h (0 Bft) N 0,00 h 0,0 UV-I 11 W/m -7,0 C -4,5 C 0,0 km/h (0 Bft)
18.01.2016 17:00 23,2 C -5,9 C 48 % 85 % 1019,8 hPa 0,0 l/m 0,0 km/h (0 Bft) N 0,00 h 0,0 UV-I 0 W/m -7,9 C -5,9 C 0,0 km/h (0 Bft)
18.01.2016 18:00 23,2 C -7,3 C 47 % 87 % 1020,0 hPa 0,0 l/m 0,0 km/h (0 Bft) N 0,00 h 0,0 UV-I 0 W/m -9,1 C -7,3 C 0,0 km/h (0 Bft)
18.01.2016 19:00 23,0 C -9,0 C 48 % 87 % 1020,1 hPa 0,0 l/m 0,0 km/h (0 Bft) N 0,00 h 0,0 UV-I 0 W/m -10,7 C -9,0 C 0,0 km/h (0 Bft)
18.01.2016 20:00 23,0 C -10,2 C 49 % 89 % 1020,1 hPa 0,0 l/m 0,0 km/h (0 Bft) N 0,00 h 0,0 UV-I 0 W/m -11,6 C -10,2 C 0,0 km/h (0 Bft)
18.01.2016 21:00 22,9 C -11,1 C 49 % 89 % 1020,0 hPa 0,0 l/m 0,0 km/h (0 Bft) N 0,00 h 0,0 UV-I 0 W/m -12,5 C -11,1 C 0,0 km/h (0 Bft)
18.01.2016 22:00 22,9 C -11,8 C 49 % 90 % 1020,0 hPa 0,0 l/m 0,0 km/h (0 Bft) N 0,00 h 0,0 UV-I 0 W/m -13,1 C -11,8 C 0,0 km/h (0 Bft)
18.01.2016 23:00 22,9 C -12,2 C 48 % 90 % 1019,8 hPa 0,0 l/m 0,0 km/h (0 Bft) N 0,00 h 0,0 UV-I 0 W/m -13,5 C -12,2 C 0,0 km/h (0 Bft)
19.01.2016 00:00 22,8 C -12,3 C 48 % 91 % 1019,4 hPa 0,0 l/m 0,0 km/h (0 Bft) N 0,00 h 0,0 UV-I 0 W/m -13,5 C -12,3 C 0,0 km/h (0 Bft)
19.01.2016 01:00 22,5 C -12,1 C 48 % 91 % 1019,1 hPa 0,0 l/m 0,0 km/h (0 Bft) N 0,00 h 0,0 UV-I 0 W/m -13,2 C -12,1 C 0,0 km/h (0 Bft)
19.01.2016 02:00 22,3 C -12,0 C 48 % 91 % 1018,9 hPa 0,0 l/m 0,0 km/h (0 Bft) N 0,00 h 0,0 UV-I 0 W/m -13,2 C -12,0 C 0,0 km/h (0 Bft)
19.01.2016 03:00 22,3 C -12,1 C 49 % 91 % 1018,6 hPa 0,0 l/m 0,0 km/h (0 Bft) N 0,00 h 0,0 UV-I 0 W/m -13,2 C -12,1 C 0,0 km/h (0 Bft)
19.01.2016 04:00 22,3 C -12,4 C 49 % 91 % 1018,4 hPa 0,0 l/m 0,0 km/h (0 Bft) N 0,00 h 0,0 UV-I 0 W/m -13,5 C -12,4 C 0,0 km/h (0 Bft)
19.01.2016 05:00 22,6 C -12,8 C 50 % 90 % 1018,4 hPa 0,0 l/m 0,0 km/h (0 Bft) N 0,00 h 0,0 UV-I 0 W/m -14,0 C -12,8 C 0,0 km/h (0 Bft)
19.01.2016 06:00 22,8 C -13,3 C 50 % 90 % 1018,3 hPa 0,0 l/m 0,0 km/h (0 Bft) N 0,00 h 0,0 UV-I 0 W/m -14,6 C -13,3 C 0,0 km/h (0 Bft)
19.01.2016 07:00 23,0 C -13,7 C 50 % 90 % 1018,7 hPa 0,0 l/m 0,0 km/h (0 Bft) N 0,00 h 0,0 UV-I 0 W/m -14,9 C -13,7 C 0,0 km/h (0 Bft)
19.01.2016 08:00 23,2 C -13,1 C 50 % 91 % 1019,3 hPa 0,0 l/m 0,0 km/h (0 Bft) N 0,00 h 0,0 UV-I 23 W/m -14,3 C -13,1 C 0,0 km/h (0 Bft)
19.01.2016 09:00 23,3 C -10,8 C 47 % 90 % 1019,7 hPa 0,0 l/m 0,0 km/h (0 Bft) N 0,23 h 0,5 UV-I 120 W/m -12,2 C -10,8 C 0,0 km/h (0 Bft)
19.01.2016 10:00 23,3 C -9,4 C 47 % 88 % 1019,6 hPa 0,0 l/m 0,0 km/h (0 Bft) N 1,00 h 0,7 UV-I 239 W/m -11,0 C -9,4 C 0,0 km/h (0 Bft)
19.01.2016 11:00 23,2 C -7,2 C 45 % 88 % 1019,2 hPa 0,0 l/m 0,0 km/h (0 Bft) N 1,00 h 0,8 UV-I 260 W/m -8,8 C -7,2 C 0,0 km/h (0 Bft)
19.01.2016 12:00 23,2 C -6,0 C 45 % 88 % 1018,5 hPa 0,0 l/m 0,0 km/h (0 Bft) N 1,00 h 0,8 UV-I 260 W/m -7,6 C -6,0 C 0,1 km/h (0 Bft)
19.01.2016 13:00 23,4 C -4,8 C 46 % 83 % 1018,0 hPa 0,0 l/m 0,0 km/h (0 Bft) N-NO 1,00 h 0,8 UV-I 260 W/m -7,3 C -4,8 C 0,1 km/h (0 Bft)
19.01.2016 14:00 23,3 C -4,9 C 46 % 80 % 1017,8 hPa 0,0 l/m 0,0 km/h (0 Bft) N 0,77 h 0,6 UV-I 186 W/m -7,8 C -4,9 C 0,9 km/h (0 Bft)
19.01.2016 15:00 23,3 C -5,9 C 46 % 82 % 1017,9 hPa 0,0 l/m 0,0 km/h (0 Bft) N 0,00 h 0,5 UV-I 84 W/m -8,4 C -5,9 C 0,0 km/h (0 Bft)
19.01.2016 16:00 23,3 C -6,7 C 46 % 82 % 1018,0 hPa 0,0 l/m 0,0 km/h (0 Bft) N 0,00 h 0,0 UV-I 18 W/m -9,3 C -6,7 C 0,0 km/h (0 Bft)
19.01.2016 17:00 23,1 C -8,8 C 43 % 85 % 1018,2 hPa 0,0 l/m 0,0 km/h (0 Bft) N 0,00 h 0,0 UV-I 0 W/m -10,9 C -8,8 C 0,0 km/h (0 Bft)
19.01.2016 18:00 23,3 C -10,0 C 47 % 87 % 1018,5 hPa 0,0 l/m 0,0 km/h (0 Bft) N 0,00 h 0,0 UV-I 0 W/m -11,7 C -10,0 C 0,0 km/h (0 Bft)
19.01.2016 19:00 23,4 C -9,4 C 48 % 89 % 1018,6 hPa 0,0 l/m 0,0 km/h (0 Bft) N 0,00 h 0,0 UV-I 0 W/m -10,8 C -9,4 C 0,0 km/h (0 Bft)
19.01.2016 20:00 23,3 C -7,9 C 48 % 91 % 1018,7 hPa 0,0 l/m 3,6 km/h (1 Bft) SW 0,00 h 0,0 UV-I 0 W/m -9,1 C -8,0 C 6,9 km/h (2 Bft)
19.01.2016 21:00 23,1 C -7,5 C 49 % 91 % 1018,5 hPa 0,0 l/m 4,0 km/h (1 Bft) SW 0,00 h 0,0 UV-I 0 W/m -8,8 C -7,8 C 7,0 km/h (2 Bft)
19.01.2016 22:00 23,1 C -7,6 C 49 % 91 % 1018,5 hPa 0,0 l/m 4,7 km/h (1 Bft) S 0,00 h 0,0 UV-I 0 W/m -8,9 C -7,9 C 8,0 km/h (2 Bft)
19.01.2016 23:00 23,2 C -7,8 C 48 % 91 % 1018,7 hPa 0,0 l/m 5,0 km/h (1 Bft) SW 0,00 h 0,0 UV-I 0 W/m -9,1 C -8,3 C 9,2 km/h (2 Bft)
20.01.2016 00:00 23,0 C -8,3 C 49 % 91 % 1018,5 hPa 0,0 l/m 7,8 km/h (2 Bft) S 0,00 h 0,0 UV-I 0 W/m -9,5 C -10,5 C 12,7 km/h (3 Bft)
20.01.2016 01:00 22,7 C -8,7 C 49 % 91 % 1018,4 hPa 0,0 l/m 6,9 km/h (2 Bft) S 0,00 h 0,0 UV-I 0 W/m -9,9 C -10,3 C 11,2 km/h (2 Bft)
20.01.2016 02:00 22,6 C -9,1 C 49 % 91 % 1018,5 hPa 0,0 l/m 6,8 km/h (2 Bft) S 0,00 h 0,0 UV-I 0 W/m -10,3 C -10,4 C 10,6 km/h (2 Bft)
20.01.2016 03:00 22,4 C -9,2 C 49 % 92 % 1018,5 hPa 0,0 l/m 4,6 km/h (1 Bft) S 0,00 h 0,0 UV-I 0 W/m -10,2 C -9,5 C 7,1 km/h (2 Bft)
20.01.2016 04:00 22,5 C -8,8 C 49 % 92 % 1018,4 hPa 0,0 l/m 3,0 km/h (1 Bft) S 0,00 h 0,0 UV-I 0 W/m -9,9 C -8,8 C 5,6 km/h (1 Bft)
20.01.2016 05:00 22,6 C -8,4 C 49 % 92 % 1018,6 hPa 0,0 l/m 5,0 km/h (1 Bft) S 0,00 h 0,0 UV-I 0 W/m -9,5 C -8,7 C 8,0 km/h (2 Bft)
20.01.2016 06:00 22,6 C -8,2 C 49 % 92 % 1018,7 hPa 0,0 l/m 5,4 km/h (1 Bft) S 0,00 h 0,0 UV-I 0 W/m -9,2 C -8,7 C 8,9 km/h (2 Bft)
20.01.2016 07:00 22,6 C -8,0 C 49 % 92 % 1018,7 hPa 0,0 l/m 5,2 km/h (1 Bft) S 0,00 h 0,0 UV-I 0 W/m -9,1 C -8,5 C 8,4 km/h (2 Bft)
20.01.2016 08:00 22,7 C -7,6 C 50 % 93 % 1019,3 hPa 0,0 l/m 4,4 km/h (1 Bft) S 0,00 h 0,0 UV-I 19 W/m -8,6 C -7,8 C 8,0 km/h (2 Bft)
20.01.2016 09:00 22,9 C -7,2 C 50 % 92 % 1019,7 hPa 0,0 l/m 5,1 km/h (1 Bft) S 0,00 h 0,0 UV-I 42 W/m -8,2 C -7,7 C 8,8 km/h (2 Bft)
20.01.2016 10:00 22,8 C -6,6 C 46 % 92 % 1019,9 hPa 0,0 l/m 5,7 km/h (1 Bft) S 0,00 h 0,0 UV-I 67 W/m -7,6 C -7,3 C 9,3 km/h (2 Bft)
20.01.2016 11:00 22,7 C -6,1 C 41 % 92 % 1019,8 hPa 0,0 l/m 5,8 km/h (2 Bft) S 0,00 h 0,6 UV-I 84 W/m -7,2 C -6,9 C 9,7 km/h (2 Bft)
20.01.2016 12:00 22,7 C -5,2 C 40 % 91 % 1019,4 hPa 0,0 l/m 4,0 km/h (1 Bft) S 0,02 h 0,7 UV-I 129 W/m -6,4 C -5,6 C 7,8 km/h (2 Bft)
20.01.2016 13:00 22,8 C -4,3 C 42 % 89 % 1019,2 hPa 0,0 l/m 4,4 km/h (1 Bft) SW 0,00 h 0,6 UV-I 116 W/m -5,8 C -4,6 C 8,2 km/h (2 Bft)
20.01.2016 14:00 23,0 C -3,8 C 42 % 89 % 1018,9 hPa 0,0 l/m 2,6 km/h (1 Bft) SW 0,00 h 0,6 UV-I 90 W/m -5,4 C -3,9 C 6,1 km/h (2 Bft)
20.01.2016 15:00 22,6 C -3,5 C 40 % 89 % 1018,9 hPa 0,0 l/m 4,2 km/h (1 Bft) SW 0,00 h 0,0 UV-I 38 W/m -5,1 C -3,7 C 8,3 km/h (2 Bft)
20.01.2016 16:00 22,9 C -3,4 C 42 % 90 % 1018,9 hPa 0,0 l/m 5,7 km/h (1 Bft) SW 0,00 h 0,0 UV-I 12 W/m -4,9 C -4,3 C 9,8 km/h (2 Bft)
20.01.2016 17:00 23,1 C -3,4 C 43 % 91 % 1019,0 hPa 0,0 l/m 5,3 km/h (1 Bft) W-SW 0,00 h 0,0 UV-I 0 W/m -4,7 C -3,8 C 9,8 km/h (2 Bft)
20.01.2016 18:00 22,8 C -3,6 C 41 % 92 % 1019,2 hPa 0,0 l/m 5,7 km/h (1 Bft) W-SW 0,00 h 0,0 UV-I 0 W/m -4,7 C -4,3 C 10,6 km/h (2 Bft)
20.01.2016 19:00 23,0 C -3,7 C 43 % 92 % 1019,4 hPa 0,0 l/m 6,4 km/h (2 Bft) W-SW 0,00 h 0,0 UV-I 0 W/m -4,8 C -4,6 C 10,7 km/h (2 Bft)
20.01.2016 20:00 23,1 C -3,7 C 44 % 92 % 1019,7 hPa 0,0 l/m 2,6 km/h (1 Bft) W-SW 0,00 h 0,0 UV-I 0 W/m -4,8 C -3,8 C 5,3 km/h (1 Bft)
20.01.2016 21:00 23,0 C -3,6 C 45 % 93 % 1020,0 hPa 0,2 l/m 1,0 km/h (0 Bft) W-SW 0,00 h 0,0 UV-I 0 W/m -4,6 C -3,6 C 2,3 km/h (1 Bft)
20.01.2016 22:00 23,0 C -3,4 C 44 % 93 % 1020,2 hPa 0,0 l/m 0,0 km/h (0 Bft) N 0,00 h 0,0 UV-I 0 W/m -4,4 C -3,4 C 0,0 km/h (0 Bft)
20.01.2016 23:00 23,1 C -3,5 C 46 % 94 % 1020,6 hPa 0,0 l/m 0,0 km/h (0 Bft) N 0,00 h 0,0 UV-I 0 W/m -4,3 C -3,5 C 0,0 km/h (0 Bft)
21.01.2016 00:00 22,7 C -3,5 C 46 % 94 % 1021,2 hPa 0,0 l/m 0,0 km/h (0 Bft) N 0,00 h 0,0 UV-I 0 W/m -4,4 C -3,5 C 0,0 km/h (0 Bft)
21.01.2016 01:00 22,5 C -3,5 C 46 % 94 % 1021,6 hPa 0,0 l/m 0,0 km/h (0 Bft) N 0,00 h 0,0 UV-I 0 W/m -4,4 C -3,5 C 0,0 km/h (0 Bft)
21.01.2016 02:00 22,3 C -3,6 C 46 % 94 % 1022,2 hPa 0,4 l/m 0,0 km/h (0 Bft) N 0,00 h 0,0 UV-I 0 W/m -4,4 C -3,6 C 0,0 km/h (0 Bft)
21.01.2016 03:00 22,3 C -3,6 C 46 % 94 % 1022,8 hPa 0,0 l/m 0,0 km/h (0 Bft) N 0,00 h 0,0 UV-I 0 W/m -4,4 C -3,6 C 0,0 km/h (0 Bft)
21.01.2016 04:00 22,4 C -4,2 C 47 % 94 % 1023,4 hPa 0,0 l/m 0,0 km/h (0 Bft) N 0,00 h 0,0 UV-I 0 W/m -5,0 C -4,2 C 0,0 km/h (0 Bft)
21.01.2016 05:00 22,4 C -4,4 C 47 % 94 % 1024,2 hPa 0,0 l/m 0,0 km/h (0 Bft) N 0,00 h 0,0 UV-I 0 W/m -5,2 C -4,4 C 0,0 km/h (0 Bft)
21.01.2016 06:00 22,4 C -5,4 C 48 % 93 % 1025,0 hPa 0,0 l/m 0,0 km/h (0 Bft) N 0,00 h 0,0 UV-I 0 W/m -6,4 C -5,4 C 0,0 km/h (0 Bft)
21.01.2016 07:00 22,4 C -7,1 C 48 % 91 % 1025,7 hPa 0,0 l/m 0,0 km/h (0 Bft) N 0,00 h 0,0 UV-I 0 W/m -8,2 C -7,1 C 0,0 km/h (0 Bft)
21.01.2016 08:00 22,6 C -9,1 C 47 % 90 % 1026,8 hPa 0,0 l/m 0,0 km/h (0 Bft) N 0,00 h 0,0 UV-I 13 W/m -10,4 C -9,1 C 0,0 km/h (0 Bft)
21.01.2016 09:00 22,6 C -8,1 C 43 % 93 % 1027,8 hPa 0,0 l/m 0,0 km/h (0 Bft) N 0,50 h 0,5 UV-I 151 W/m -9,0 C -8,1 C 0,0 km/h (0 Bft)
21.01.2016 10:00 22,7 C -4,6 C 44 % 88 % 1028,3 hPa 0,0 l/m 0,0 km/h (0 Bft) N 1,00 h 0,7 UV-I 256 W/m -6,3 C -4,6 C 0,0 km/h (0 Bft)
21.01.2016 11:00 22,8 C -1,3 C 42 % 78 % 1028,7 hPa 0,0 l/m 0,1 km/h (0 Bft) N 1,00 h 1,0 UV-I 312 W/m -4,5 C -1,3 C 0,6 km/h (0 Bft)
21.01.2016 12:00 22,8 C -2,2 C 42 % 80 % 1029,1 hPa 0,0 l/m 0,0 km/h (0 Bft) N 0,92 h 1,1 UV-I 312 W/m -5,2 C -2,2 C 0,0 km/h (0 Bft)
21.01.2016 13:00 22,9 C -2,4 C 43 % 79 % 1029,1 hPa 0,0 l/m 0,0 km/h (0 Bft) N 1,00 h 1,0 UV-I 300 W/m -5,4 C -2,4 C 0,1 km/h (0 Bft)
21.01.2016 14:00 22,9 C -2,2 C 43 % 79 % 1029,0 hPa 0,0 l/m 0,0 km/h (0 Bft) N 0,98 h 0,7 UV-I 212 W/m -5,4 C -2,2 C 0,1 km/h (0 Bft)
21.01.2016 15:00 23,0 C -2,5 C 43 % 78 % 1029,1 hPa 0,0 l/m 0,0 km/h (0 Bft) N 0,15 h 0,5 UV-I 104 W/m -5,8 C -2,5 C 0,0 km/h (0 Bft)
21.01.2016 16:00 23,0 C -3,2 C 44 % 80 % 1029,5 hPa 0,0 l/m 0,0 km/h (0 Bft) N 0,00 h 0,0 UV-I 22 W/m -6,2 C -3,2 C 0,0 km/h (0 Bft)
21.01.2016 17:00 22,8 C -5,3 C 40 % 82 % 1030,0 hPa 0,0 l/m 0,0 km/h (0 Bft) N 0,00 h 0,0 UV-I 0 W/m -8,0 C -5,3 C 0,0 km/h (0 Bft)
21.01.2016 18:00 23,0 C -8,0 C 42 % 86 % 1030,5 hPa 0,0 l/m 0,0 km/h (0 Bft) N 0,00 h 0,0 UV-I 0 W/m -9,9 C -8,0 C 0,0 km/h (0 Bft)
21.01.2016 19:00 23,0 C -10,2 C 42 % 87 % 1031,2 hPa 0,0 l/m 0,0 km/h (0 Bft) N 0,00 h 0,0 UV-I 0 W/m -12,0 C -10,2 C 0,0 km/h (0 Bft)
21.01.2016 20:00 22,9 C -11,5 C 43 % 88 % 1031,7 hPa 0,0 l/m 0,0 km/h (0 Bft) N 0,00 h 0,0 UV-I 0 W/m -13,1 C -11,5 C 0,0 km/h (0 Bft)
21.01.2016 21:00 22,8 C -12,5 C 43 % 88 % 1032,3 hPa 0,0 l/m 0,0 km/h (0 Bft) N 0,00 h 0,0 UV-I 0 W/m -14,0 C -12,5 C 0,0 km/h (0 Bft)
21.01.2016 22:00 22,7 C -13,6 C 42 % 88 % 1032,5 hPa 0,0 l/m 0,0 km/h (0 Bft) N 0,00 h 0,0 UV-I 0 W/m -15,1 C -13,6 C 0,0 km/h (0 Bft)
21.01.2016 23:00 22,9 C -14,3 C 43 % 89 % 1032,7 hPa 0,0 l/m 0,0 km/h (0 Bft) N 0,00 h 0,0 UV-I 0 W/m -15,8 C -14,3 C 0,0 km/h (0 Bft)
22.01.2016 00:00 22,6 C -15,1 C 44 % 88 % 1032,8 hPa 0,0 l/m 0,0 km/h (0 Bft) N 0,00 h 0,0 UV-I 0 W/m -16,6 C -15,1 C 0,0 km/h (0 Bft)
22.01.2016 01:00 22,3 C -15,9 C 44 % 87 % 1033,0 hPa 0,0 l/m 0,0 km/h (0 Bft) N 0,00 h 0,0 UV-I 0 W/m -17,5 C -15,9 C 0,0 km/h (0 Bft)
22.01.2016 02:00 22,3 C -16,4 C 44 % 88 % 1033,3 hPa 0,0 l/m 0,0 km/h (0 Bft) N 0,00 h 0,0 UV-I 0 W/m -17,9 C -16,4 C 0,0 km/h (0 Bft)
22.01.2016 03:00 22,2 C -17,0 C 45 % 88 % 1033,6 hPa 0,0 l/m 0,0 km/h (0 Bft) N 0,00 h 0,0 UV-I 0 W/m -18,5 C -17,0 C 0,0 km/h (0 Bft)
22.01.2016 04:00 22,4 C -17,4 C 46 % 87 % 1033,6 hPa 0,0 l/m 0,0 km/h (0 Bft) N 0,00 h 0,0 UV-I 0 W/m -19,0 C -17,4 C 0,0 km/h (0 Bft)
22.01.2016 05:00 22,4 C -17,8 C 46 % 87 % 1033,9 hPa 0,0 l/m 0,0 km/h (0 Bft) N 0,00 h 0,0 UV-I 0 W/m -19,4 C -17,8 C 0,0 km/h (0 Bft)
22.01.2016 06:00 22,3 C -18,2 C 46 % 87 % 1034,3 hPa 0,0 l/m 0,0 km/h (0 Bft) N 0,00 h 0,0 UV-I 0 W/m -19,9 C -18,2 C 0,0 km/h (0 Bft)
22.01.2016 07:00 22,3 C -18,5 C 46 % 87 % 1034,7 hPa 0,0 l/m 0,0 km/h (0 Bft) N 0,00 h 0,0 UV-I 0 W/m -20,2 C -18,5 C 0,0 km/h (0 Bft)
22.01.2016 08:00 22,3 C -18,1 C 46 % 88 % 1035,2 hPa 0,0 l/m 0,0 km/h (0 Bft) N 0,00 h 0,0 UV-I 29 W/m -19,6 C -18,1 C 0,0 km/h (0 Bft)
22.01.2016 09:00 22,2 C -15,8 C 46 % 87 % 1035,6 hPa 0,0 l/m 0,0 km/h (0 Bft) N 0,37 h 0,5 UV-I 136 W/m -17,5 C -15,8 C 0,0 km/h (0 Bft)
22.01.2016 10:00 22,3 C -13,2 C 46 % 85 % 1035,6 hPa 0,0 l/m 0,0 km/h (0 Bft) N 1,00 h 0,8 UV-I 260 W/m -15,1 C -13,2 C 0,0 km/h (0 Bft)
22.01.2016 11:00 22,5 C -9,1 C 44 % 83 % 1035,3 hPa 0,0 l/m 0,0 km/h (0 Bft) N 1,00 h 1,1 UV-I 323 W/m -11,4 C -9,1 C 0,0 km/h (0 Bft)
22.01.2016 12:00 22,8 C -6,1 C 44 % 79 % 1034,9 hPa 0,0 l/m 0,0 km/h (0 Bft) N 1,00 h 1,2 UV-I 332 W/m -9,1 C -6,1 C 0,0 km/h (0 Bft)
22.01.2016 13:00 22,8 C -4,0 C 44 % 74 % 1034,2 hPa 0,0 l/m 0,0 km/h (0 Bft) O-NO 1,00 h 1,0 UV-I 304 W/m -7,9 C -4,0 C 0,1 km/h (0 Bft)
22.01.2016 14:00 22,8 C -3,5 C 45 % 74 % 1034,0 hPa 0,0 l/m 0,3 km/h (0 Bft) NO 1,00 h 0,7 UV-I 223 W/m -7,4 C -3,5 C 1,8 km/h (1 Bft)
22.01.2016 15:00 23,0 C -4,5 C 45 % 75 % 1033,8 hPa 0,0 l/m 2,0 km/h (1 Bft) O-NO 0,20 h 0,5 UV-I 110 W/m -8,2 C -4,5 C 4,8 km/h (1 Bft)
22.01.2016 16:00 22,9 C -6,1 C 45 % 77 % 1033,7 hPa 0,0 l/m 1,7 km/h (1 Bft) O 0,00 h 0,0 UV-I 25 W/m -9,5 C -6,1 C 4,4 km/h (1 Bft)
22.01.2016 17:00 22,9 C -8,4 C 45 % 83 % 1033,9 hPa 0,0 l/m 4,7 km/h (1 Bft) O 0,00 h 0,0 UV-I 0 W/m -10,8 C -8,6 C 8,9 km/h (2 Bft)
22.01.2016 18:00 22,9 C -9,6 C 47 % 86 % 1034,1 hPa 0,0 l/m 3,9 km/h (1 Bft) O 0,00 h 0,0 UV-I 0 W/m -11,4 C -9,6 C 7,6 km/h (2 Bft)
22.01.2016 19:00 23,1 C -10,0 C 48 % 88 % 1034,0 hPa 0,0 l/m 2,9 km/h (1 Bft) O 0,00 h 0,0 UV-I 0 W/m -11,6 C -10,0 C 6,2 km/h (2 Bft)
22.01.2016 20:00 22,8 C -10,9 C 48 % 86 % 1034,1 hPa 0,0 l/m 1,4 km/h (1 Bft) O 0,00 h 0,0 UV-I 0 W/m -12,7 C -10,9 C 3,4 km/h (1 Bft)
22.01.2016 21:00 22,6 C -12,4 C 48 % 87 % 1033,7 hPa 0,0 l/m 0,7 km/h (0 Bft) O 0,00 h 0,0 UV-I 0 W/m -14,1 C -12,4 C 1,5 km/h (1 Bft)
22.01.2016 22:00 22,4 C -12,7 C 45 % 89 % 1033,7 hPa 0,0 l/m 1,3 km/h (1 Bft) N 0,00 h 0,0 UV-I 0 W/m -14,0 C -12,7 C 2,3 km/h (1 Bft)
22.01.2016 23:00 22,7 C -13,6 C 47 % 88 % 1033,5 hPa 0,0 l/m 0,0 km/h (0 Bft) N 0,00 h 0,0 UV-I 0 W/m -15,1 C -13,6 C 0,1 km/h (0 Bft)
23.01.2016 00:00 22,5 C -13,5 C 44 % 89 % 1032,9 hPa 0,0 l/m 0,1 km/h (0 Bft) N 0,00 h 0,0 UV-I 0 W/m -14,9 C -13,5 C 0,5 km/h (0 Bft)
23.01.2016 01:00 22,3 C -12,5 C 45 % 90 % 1032,6 hPa 0,0 l/m 0,2 km/h (0 Bft) N 0,00 h 0,0 UV-I 0 W/m -13,8 C -12,5 C 0,4 km/h (0 Bft)
23.01.2016 02:00 22,1 C -11,4 C 46 % 90 % 1031,8 hPa 0,0 l/m 0,0 km/h (0 Bft) N 0,00 h 0,0 UV-I 0 W/m -12,7 C -11,4 C 0,2 km/h (0 Bft)
23.01.2016 03:00 22,1 C -10,6 C 46 % 91 % 1031,3 hPa 0,0 l/m 0,0 km/h (0 Bft) N 0,00 h 0,0 UV-I 0 W/m -11,8 C -10,6 C 0,2 km/h (0 Bft)
23.01.2016 04:00 22,4 C -9,4 C 47 % 91 % 1031,5 hPa 0,0 l/m 0,1 km/h (0 Bft) N 0,00 h 0,0 UV-I 0 W/m -10,5 C -9,4 C 1,0 km/h (0 Bft)
23.01.2016 05:00 22,4 C -8,5 C 48 % 92 % 1030,8 hPa 0,4 l/m 0,1 km/h (0 Bft) N 0,00 h 0,0 UV-I 0 W/m -9,5 C -8,5 C 0,2 km/h (0 Bft)
23.01.2016 06:00 22,4 C -7,7 C 48 % 93 % 1030,8 hPa 0,8 l/m 0,0 km/h (0 Bft) N 0,00 h 0,0 UV-I 0 W/m -8,7 C -7,7 C 0,0 km/h (0 Bft)
23.01.2016 07:00 22,6 C -7,2 C 48 % 93 % 1031,2 hPa 0,8 l/m 0,0 km/h (0 Bft) N 0,00 h 0,0 UV-I 0 W/m -8,2 C -7,2 C 0,0 km/h (0 Bft)
23.01.2016 08:00 22,9 C -6,5 C 47 % 93 % 1031,7 hPa 0,2 l/m 2,0 km/h (1 Bft) S 0,00 h 0,0 UV-I 5 W/m -7,4 C -6,5 C 3,7 km/h (1 Bft)
23.01.2016 09:00 23,0 C -5,5 C 45 % 94 % 1032,1 hPa 0,2 l/m 3,9 km/h (1 Bft) S 0,00 h 0,0 UV-I 8 W/m -6,3 C -5,6 C 6,9 km/h (2 Bft)
23.01.2016 10:00 23,3 C -4,6 C 46 % 95 % 1033,1 hPa 0,0 l/m 0,9 km/h (0 Bft) S 0,00 h 0,0 UV-I 14 W/m -5,2 C -4,6 C 2,1 km/h (1 Bft)
23.01.2016 11:00 23,4 C -3,0 C 46 % 96 % 1033,6 hPa 0,0 l/m 2,7 km/h (1 Bft) SW 0,00 h 0,0 UV-I 23 W/m -3,6 C -3,0 C 6,0 km/h (2 Bft)
23.01.2016 12:00 23,4 C -1,7 C 47 % 96 % 1033,8 hPa 0,0 l/m 2,9 km/h (1 Bft) SW 0,00 h 0,0 UV-I 35 W/m -2,3 C -1,7 C 6,4 km/h (2 Bft)
23.01.2016 13:00 23,4 C -0,3 C 47 % 96 % 1034,1 hPa 0,0 l/m 1,8 km/h (1 Bft) SW 0,00 h 0,0 UV-I 31 W/m -0,9 C -0,4 C 3,3 km/h (1 Bft)
23.01.2016 14:00 23,3 C 0,7 C 47 % 96 % 1034,2 hPa 0,0 l/m 1,7 km/h (1 Bft) SW 0,00 h 0,5 UV-I 74 W/m 0,1 C 0,7 C 3,6 km/h (1 Bft)
23.01.2016 15:00 23,2 C 1,4 C 47 % 95 % 1034,5 hPa 0,0 l/m 6,3 km/h (2 Bft) W-SW 0,00 h 0,0 UV-I 63 W/m 0,7 C 0,5 C 11,3 km/h (2 Bft)
23.01.2016 16:00 23,3 C 1,3 C 48 % 96 % 1035,4 hPa 0,0 l/m 8,4 km/h (2 Bft) W-SW 0,00 h 0,0 UV-I 9 W/m 0,7 C -0,7 C 13,1 km/h (3 Bft)
23.01.2016 17:00 23,3 C 1,3 C 47 % 97 % 1036,4 hPa 0,0 l/m 1,6 km/h (1 Bft) W-SW 0,00 h 0,0 UV-I 0 W/m 0,9 C 1,2 C 3,0 km/h (1 Bft)
23.01.2016 18:00 23,3 C 1,4 C 47 % 97 % 1037,2 hPa 0,0 l/m 1,7 km/h (1 Bft) W 0,00 h 0,0 UV-I 0 W/m 1,0 C 1,4 C 3,3 km/h (1 Bft)
23.01.2016 19:00 23,1 C 1,5 C 46 % 97 % 1037,5 hPa 0,0 l/m 0,1 km/h (0 Bft) SW 0,00 h 0,0 UV-I 0 W/m 1,1 C 1,5 C 0,2 km/h (0 Bft)
23.01.2016 20:00 22,9 C 1,7 C 45 % 97 % 1037,7 hPa 0,0 l/m 3,1 km/h (1 Bft) W-SW 0,00 h 0,0 UV-I 0 W/m 1,3 C 1,6 C 5,8 km/h (2 Bft)
23.01.2016 21:00 22,9 C 1,8 C 46 % 97 % 1037,7 hPa 0,0 l/m 7,5 km/h (2 Bft) W-SW 0,00 h 0,0 UV-I 0 W/m 1,4 C 0,4 C 12,3 km/h (3 Bft)
23.01.2016 22:00 22,9 C 1,7 C 46 % 97 % 1037,4 hPa 0,0 l/m 6,4 km/h (2 Bft) W-SW 0,00 h 0,0 UV-I 0 W/m 1,3 C 1,0 C 11,0 km/h (2 Bft)
23.01.2016 23:00 23,0 C 1,9 C 47 % 97 % 1037,8 hPa 0,0 l/m 4,6 km/h (1 Bft) W 0,00 h 0,0 UV-I 0 W/m 1,4 C 1,6 C 8,6 km/h (2 Bft)
24.01.2016 00:00 22,7 C 1,9 C 46 % 97 % 1037,7 hPa 0,0 l/m 5,0 km/h (1 Bft) W 0,00 h 0,0 UV-I 0 W/m 1,5 C 1,8 C 8,8 km/h (2 Bft)
24.01.2016 01:00 22,4 C 2,0 C 47 % 97 % 1037,4 hPa 0,0 l/m 1,7 km/h (1 Bft) W 0,00 h 0,0 UV-I 0 W/m 1,5 C 1,9 C 2,8 km/h (1 Bft)
24.01.2016 02:00 22,3 C 1,7 C 47 % 97 % 1037,1 hPa 0,0 l/m 0,0 km/h (0 Bft) N 0,00 h 0,0 UV-I 0 W/m 1,2 C 1,7 C 0,0 km/h (0 Bft)
24.01.2016 03:00 22,2 C 1,0 C 47 % 97 % 1036,5 hPa 0,0 l/m 0,0 km/h (0 Bft) N 0,00 h 0,0 UV-I 0 W/m 0,6 C 1,0 C 0,0 km/h (0 Bft)
24.01.2016 04:00 22,4 C 1,0 C 48 % 97 % 1036,3 hPa 0,0 l/m 0,0 km/h (0 Bft) N 0,00 h 0,0 UV-I 0 W/m 0,5 C 1,0 C 0,0 km/h (0 Bft)
24.01.2016 05:00 22,4 C 1,4 C 48 % 97 % 1036,0 hPa 0,0 l/m 0,0 km/h (0 Bft) N 0,00 h 0,0 UV-I 0 W/m 1,0 C 1,4 C 0,0 km/h (0 Bft)
24.01.2016 06:00 22,4 C 1,5 C 48 % 98 % 1035,6 hPa 0,0 l/m 0,0 km/h (0 Bft) N 0,00 h 0,0 UV-I 0 W/m 1,1 C 1,5 C 0,0 km/h (0 Bft)
24.01.2016 07:00 22,5 C 1,5 C 48 % 98 % 1035,2 hPa 0,0 l/m 0,3 km/h (0 Bft) S 0,00 h 0,0 UV-I 0 W/m 1,1 C 1,5 C 1,8 km/h (1 Bft)
24.01.2016 08:00 22,8 C 1,3 C 48 % 98 % 1035,5 hPa 0,0 l/m 0,2 km/h (0 Bft) SW 0,00 h 0,0 UV-I 12 W/m 1,0 C 1,3 C 1,2 km/h (1 Bft)
24.01.2016 09:00 22,7 C 1,4 C 46 % 98 % 1035,4 hPa 0,0 l/m 0,2 km/h (0 Bft) S-SO 0,00 h 0,0 UV-I 43 W/m 1,2 C 1,4 C 1,1 km/h (1 Bft)
24.01.2016 10:00 22,7 C 1,7 C 44 % 98 % 1035,7 hPa 0,0 l/m 0,1 km/h (0 Bft) S-SO 0,00 h 0,6 UV-I 81 W/m 1,4 C 1,7 C 0,3 km/h (0 Bft)
24.01.2016 11:00 22,6 C 2,4 C 44 % 95 % 1035,0 hPa 0,0 l/m 0,5 km/h (0 Bft) S-SO 0,90 h 0,9 UV-I 201 W/m 1,8 C 2,4 C 1,8 km/h (1 Bft)
24.01.2016 12:00 22,6 C 3,0 C 44 % 93 % 1034,4 hPa 0,0 l/m 0,8 km/h (0 Bft) W-SW 0,50 h 0,8 UV-I 156 W/m 1,9 C 3,0 C 2,5 km/h (1 Bft)
24.01.2016 13:00 22,4 C 2,9 C 44 % 93 % 1033,9 hPa 0,0 l/m 1,0 km/h (0 Bft) S 0,03 h 0,6 UV-I 104 W/m 1,9 C 2,9 C 3,0 km/h (1 Bft)
24.01.2016 14:00 22,3 C 2,6 C 44 % 94 % 1033,5 hPa 0,0 l/m 1,8 km/h (1 Bft) S 0,08 h 0,5 UV-I 98 W/m 1,8 C 2,6 C 5,2 km/h (1 Bft)
24.01.2016 15:00 22,8 C 2,3 C 46 % 95 % 1033,3 hPa 0,0 l/m 1,3 km/h (1 Bft) S 0,00 h 0,0 UV-I 42 W/m 1,5 C 2,2 C 3,3 km/h (1 Bft)
24.01.2016 16:00 22,9 C 2,2 C 45 % 95 % 1033,3 hPa 0,0 l/m 0,2 km/h (0 Bft) S-SO 0,00 h 0,0 UV-I 12 W/m 1,4 C 2,2 C 1,0 km/h (0 Bft)
24.01.2016 17:00 23,0 C 1,9 C 44 % 95 % 1033,2 hPa 0,0 l/m 0,2 km/h (0 Bft) SO 0,00 h 0,0 UV-I 0 W/m 1,2 C 1,9 C 0,9 km/h (0 Bft)
24.01.2016 18:00 22,9 C 1,7 C 45 % 95 % 1033,1 hPa 0,0 l/m 2,0 km/h (1 Bft) S-SW 0,00 h 0,0 UV-I 0 W/m 1,0 C 1,6 C 5,5 km/h (1 Bft)
24.01.2016 19:00 23,0 C 1,4 C 47 % 96 % 1032,8 hPa 0,0 l/m 1,2 km/h (1 Bft) S 0,00 h 0,0 UV-I 0 W/m 0,9 C 1,4 C 3,3 km/h (1 Bft)
24.01.2016 20:00 22,9 C 1,3 C 46 % 96 % 1032,5 hPa 0,0 l/m 1,7 km/h (1 Bft) S 0,00 h 0,0 UV-I 0 W/m 0,8 C 1,2 C 4,2 km/h (1 Bft)
24.01.2016 21:00 23,0 C 1,4 C 47 % 96 % 1032,2 hPa 0,0 l/m 2,9 km/h (1 Bft) S 0,00 h 0,0 UV-I 0 W/m 0,8 C 1,4 C 6,9 km/h (2 Bft)
24.01.2016 22:00 22,8 C 1,4 C 47 % 96 % 1032,1 hPa 0,0 l/m 1,5 km/h (1 Bft) S 0,00 h 0,0 UV-I 0 W/m 0,8 C 1,4 C 4,0 km/h (1 Bft)
24.01.2016 23:00 22,5 C 1,4 C 47 % 96 % 1031,7 hPa 0,8 l/m 2,3 km/h (1 Bft) S 0,00 h 0,0 UV-I 0 W/m 0,8 C 1,3 C 5,1 km/h (1 Bft)
Min-Datum _ 23.01.16 22.01.16 21.01.16 22.01.16 19.01.16 - 18.01.16 - - - - 22.01.16 22.01.16 18.01.16
_ Min-Zeit 02:55 07:55 17:00 14:14 13:44 - 00:00 - - - - 07:55 07:55 00:00
Minimum _ 22,0 C -18,7 C 30 % 70 % 1017,8 hPa - 0,0 km/h (0 Bft) - - - - -20,3 C -18,7 C 0,0 km/h (0 Bft)
Max-Datum _ 19.01.16 24.01.16 18.01.16 24.01.16 23.01.16 23.01.16 20.01.16 - 19.01.16 21.01.16 24.01.16 24.01.16 24.01.16 20.01.16
_ Max-Zeit 09:04 12:00 22:08 05:32 21:05 06:19 00:40 - 10:05 12:20 11:38 12:01 12:04 18:43
Maximum _ 23,5 C 3,3 C 51 % 98 % 1037,9 hPa 0,8 l/m 12,9 km/h
S (3 Bft)
- 0,03 h 1,2 UV-I 443 W/m 2,3 C 3,3 C 19,3 km/h
W-SW (3 Bft)
Durchschnitt _ 22,8 C -6,0 C 46 % 90 % 1027,2 hPa #4,0 l/m 1,3 km/h (1 Bft) S #21:42 h 0,7 UV-I 126 W/m -7,3 C -6,1 C 2,6 km/h (1 Bft)